createdAt,value
2023-05-21T00:00:12.054Z,5.53
2023-05-21T00:02:40.076Z,4.10
2023-05-21T00:05:14.387Z,3.80
2023-05-21T00:07:41.718Z,8.13
2023-05-21T00:10:08.912Z,4.93
2023-05-21T00:12:35.886Z,5.57
2023-05-21T00:15:02.777Z,6.03
2023-05-21T00:17:29.837Z,4.63
2023-05-21T00:19:59.997Z,5.82
2023-05-21T00:22:26.839Z,4.70
2023-05-21T00:24:53.754Z,5.03
2023-05-21T00:27:20.888Z,4.32
2023-05-21T00:29:47.717Z,4.00
2023-05-21T00:32:14.832Z,7.80
2023-05-21T00:34:42.287Z,5.13
2023-05-21T00:37:10.120Z,3.85
2023-05-21T00:39:37.137Z,5.00
2023-05-21T00:42:04.199Z,7.53
2023-05-21T00:44:34.408Z,10.77
2023-05-21T00:47:02.289Z,4.13
2023-05-21T00:49:30.618Z,4.28
2023-05-21T00:51:57.700Z,5.93
2023-05-21T00:54:24.989Z,5.82
2023-05-21T00:56:52.583Z,6.25
2023-05-21T00:59:19.558Z,4.07
2023-05-21T01:01:46.641Z,9.65
2023-05-21T01:09:44.492Z,8.40
2023-05-21T01:12:13.287Z,4.18
2023-05-21T01:14:41.102Z,5.90
2023-05-21T01:17:10.628Z,7.97
2023-05-21T01:19:37.856Z,6.35
2023-05-21T01:22:07.446Z,5.70
2023-05-21T01:24:35.314Z,7.25
2023-05-21T01:27:03.186Z,7.70
2023-05-21T01:29:30.274Z,6.88
2023-05-21T01:32:23.832Z,5.35
2023-05-21T01:35:05.477Z,6.82
2023-05-21T01:37:57.482Z,5.72
2023-05-21T01:40:53.471Z,6.18
2023-05-21T01:43:20.972Z,5.78
2023-05-21T01:45:49.143Z,6.85
2023-05-21T01:48:17.538Z,7.53
2023-05-21T01:50:45.987Z,7.10
2023-05-21T01:53:12.972Z,5.95
2023-05-21T01:55:42.196Z,5.35
2023-05-21T01:58:10.115Z,5.07
2023-05-21T02:00:37.589Z,6.35
2023-05-21T02:03:04.561Z,5.45
2023-05-21T02:05:31.641Z,5.60
2023-05-21T02:08:00.212Z,7.55
2023-05-21T02:10:27.254Z,8.38
2023-05-21T02:12:54.142Z,9.60
2023-05-21T02:15:21.002Z,6.72
2023-05-21T02:17:48.514Z,10.57
2023-05-21T02:20:15.721Z,9.52
2023-05-21T02:22:44.691Z,6.35
2023-05-21T02:25:13.153Z,9.82
2023-05-21T02:27:42.429Z,6.85
2023-05-21T02:30:13.858Z,7.53
2023-05-21T02:35:12.470Z,4.50
2023-05-21T02:37:44.089Z,6.55
2023-05-21T02:40:11.891Z,4.85
2023-05-21T02:42:41.393Z,6.18
2023-05-21T02:45:09.818Z,7.18
2023-05-21T02:47:37.154Z,7.93
2023-05-21T02:50:06.460Z,7.13
2023-05-21T02:52:33.470Z,6.93
2023-05-21T02:55:00.437Z,7.07
2023-05-21T02:57:27.226Z,7.72
2023-05-21T02:59:54.100Z,9.02
2023-05-21T03:02:21.101Z,5.80
2023-05-21T03:04:48.955Z,8.50
2023-05-21T03:07:19.261Z,9.35
2023-05-21T03:09:47.916Z,10.27
2023-05-21T03:12:14.791Z,6.28
2023-05-21T03:14:46.494Z,8.00
2023-05-21T03:17:17.294Z,5.47
2023-05-21T03:19:44.981Z,5.88
2023-05-21T03:22:12.039Z,7.38
2023-05-21T03:24:39.646Z,10.85
2023-05-21T03:27:06.865Z,9.20
2023-05-21T03:29:34.412Z,6.55
2023-05-21T03:32:02.041Z,11.65
2023-05-21T03:34:31.901Z,6.63
2023-05-21T03:36:58.869Z,7.22
2023-05-21T03:39:25.747Z,5.00
2023-05-21T03:41:52.718Z,9.43
2023-05-21T03:44:19.766Z,5.43
2023-05-21T03:46:46.709Z,6.38
2023-05-21T03:49:14.352Z,6.15
2023-05-21T03:51:41.380Z,9.60
2023-05-21T03:54:08.254Z,5.93
2023-05-21T03:56:35.488Z,7.82
2023-05-21T03:59:02.531Z,8.57
2023-05-21T04:01:29.972Z,12.43
2023-05-21T04:03:56.993Z,9.32
2023-05-21T04:06:25.605Z,6.50
2023-05-21T04:08:52.557Z,5.45
2023-05-21T04:11:19.394Z,6.28
2023-05-21T04:13:46.243Z,9.57
2023-05-21T04:16:15.121Z,5.40
2023-05-21T04:18:44.882Z,9.88
2023-05-21T04:21:12.909Z,6.60
2023-05-21T04:23:40.415Z,6.30
2023-05-21T04:26:08.110Z,7.68
2023-05-21T04:28:35.575Z,11.18
2023-05-21T04:31:03.009Z,8.57
2023-05-21T04:33:30.583Z,4.72
2023-05-21T04:35:57.944Z,6.95
2023-05-21T04:38:26.120Z,6.22
2023-05-21T04:40:53.556Z,10.65
2023-05-21T04:43:26.038Z,6.20
2023-05-21T04:45:55.008Z,6.93
2023-05-21T04:48:25.124Z,5.50
2023-05-21T04:50:57.061Z,5.55
2023-05-21T04:53:36.239Z,9.65
2023-05-21T04:56:03.316Z,7.97
2023-05-21T04:58:30.190Z,7.32
2023-05-21T05:00:58.092Z,8.50
2023-05-21T05:03:25.394Z,5.43
2023-05-21T05:05:54.923Z,5.20
2023-05-21T05:08:22.310Z,8.32
2023-05-21T05:10:49.630Z,5.20
2023-05-21T05:13:17.508Z,8.68
2023-05-21T05:15:44.471Z,8.98
2023-05-21T05:18:12.364Z,5.88
2023-05-21T05:20:42.594Z,22.23
2023-05-21T05:23:13.212Z,16.17
2023-05-21T05:25:40.226Z,8.73
2023-05-21T05:28:07.212Z,7.57
2023-05-21T05:30:34.425Z,10.55
2023-05-21T05:33:01.616Z,11.10
2023-05-21T05:35:28.630Z,8.23
2023-05-21T05:37:56.075Z,9.80
2023-05-21T05:40:23.020Z,8.73
2023-05-21T05:42:52.862Z,7.95
2023-05-21T05:45:21.339Z,9.50
2023-05-21T05:47:48.334Z,12.10
2023-05-21T05:50:15.730Z,14.18
2023-05-21T05:52:42.815Z,7.43
2023-05-21T05:55:12.430Z,6.68
2023-05-21T05:57:39.316Z,9.50
2023-05-21T06:00:07.209Z,17.83
2023-05-21T06:02:34.296Z,6.38
2023-05-21T06:05:01.503Z,8.50
2023-05-21T06:07:28.592Z,13.77
2023-05-21T06:09:55.743Z,17.42
2023-05-21T06:12:22.667Z,10.15
2023-05-21T06:14:49.689Z,9.15
2023-05-21T06:17:16.620Z,7.20
2023-05-21T06:19:45.598Z,6.88
2023-05-21T06:22:12.499Z,11.25
2023-05-21T06:24:39.569Z,9.43
2023-05-21T06:27:06.877Z,9.77
2023-05-21T06:29:33.812Z,10.30
2023-05-21T06:32:01.854Z,7.65
2023-05-21T06:34:31.146Z,12.88
2023-05-21T06:36:58.026Z,9.20
2023-05-21T06:39:25.039Z,7.80
2023-05-21T06:41:51.948Z,12.82
2023-05-21T06:44:18.860Z,14.52
2023-05-21T06:46:45.903Z,8.73
2023-05-21T06:49:14.473Z,8.15
2023-05-21T06:51:41.618Z,11.95
2023-05-21T06:54:08.507Z,11.20
2023-05-21T06:56:35.416Z,7.78
2023-05-21T06:59:02.352Z,12.43
2023-05-21T07:01:29.473Z,10.85
2023-05-21T07:04:09.929Z,8.60
2023-05-21T07:06:38.029Z,9.10
2023-05-21T07:09:06.195Z,15.40
2023-05-21T07:11:33.648Z,11.88
2023-05-21T07:14:01.784Z,9.02
2023-05-21T07:16:28.795Z,9.45
2023-05-21T07:18:56.000Z,11.38
2023-05-21T07:21:22.833Z,9.60
2023-05-21T07:23:49.746Z,9.05
2023-05-21T07:26:16.925Z,8.77
2023-05-21T07:28:43.999Z,10.32
2023-05-21T07:31:12.417Z,6.88
2023-05-21T07:33:40.477Z,8.13
2023-05-21T07:36:17.135Z,11.80
2023-05-21T07:38:44.953Z,9.05
2023-05-21T07:41:12.058Z,9.98
2023-05-21T07:43:39.027Z,10.57
2023-05-21T07:46:06.968Z,9.82
2023-05-21T07:48:35.424Z,8.18
2023-05-21T07:51:03.979Z,7.15
2023-05-21T07:53:32.427Z,8.75
2023-05-21T07:56:00.916Z,8.18
2023-05-21T07:58:27.979Z,9.77
2023-05-21T08:00:55.083Z,7.82
2023-05-21T08:03:22.097Z,11.43
2023-05-21T08:05:49.299Z,10.95
2023-05-21T08:08:17.397Z,10.23
2023-05-21T08:10:44.904Z,6.88
2023-05-21T08:13:16.760Z,9.55
2023-05-21T08:15:44.301Z,8.73
2023-05-21T08:18:12.144Z,9.30
2023-05-21T08:20:39.375Z,9.55
2023-05-21T08:23:06.221Z,9.52
2023-05-21T08:25:33.054Z,9.70
2023-05-21T08:28:00.157Z,6.85
2023-05-21T08:30:27.069Z,9.52
2023-05-21T08:32:55.158Z,7.40
2023-05-21T08:35:22.374Z,8.02
2023-05-21T08:37:49.448Z,6.57
2023-05-21T08:40:16.545Z,7.68
2023-05-21T08:42:45.148Z,9.32
2023-05-21T08:45:17.007Z,9.15
2023-05-21T08:47:44.860Z,10.75
2023-05-21T08:50:14.097Z,8.75
2023-05-21T08:52:42.058Z,8.38
2023-05-21T08:55:12.911Z,6.45
2023-05-21T08:57:44.124Z,15.95
2023-05-21T09:02:41.007Z,17.52
2023-05-21T09:05:09.845Z,11.32
2023-05-21T09:07:52.280Z,6.88
2023-05-21T09:10:25.462Z,5.95
2023-05-21T09:12:52.683Z,21.42
2023-05-21T09:15:35.112Z,6.68
2023-05-21T09:18:02.294Z,12.30
2023-05-21T09:20:30.499Z,8.23
2023-05-21T09:22:57.800Z,10.80
2023-05-21T09:25:29.577Z,6.85
2023-05-21T09:27:57.153Z,11.35
2023-05-21T09:30:26.719Z,9.63
2023-05-21T09:32:59.600Z,6.88
2023-05-21T09:35:27.136Z,7.22
2023-05-21T09:37:57.617Z,6.60
2023-05-21T09:40:37.162Z,9.60
2023-05-21T09:43:06.134Z,7.90
2023-05-21T09:45:35.001Z,8.02
2023-05-21T09:48:02.106Z,6.65
2023-05-21T09:50:42.705Z,9.23
2023-05-21T09:53:15.951Z,6.28
2023-05-21T09:55:44.096Z,9.93
2023-05-21T09:58:11.293Z,8.50
2023-05-21T10:00:39.037Z,7.45
2023-05-21T10:03:13.217Z,5.35
2023-05-21T10:05:42.357Z,8.65
2023-05-21T10:08:30.414Z,5.85
2023-05-21T10:10:57.428Z,7.90
2023-05-21T10:13:24.875Z,7.97
2023-05-21T10:16:01.225Z,11.07
2023-05-21T10:18:31.419Z,7.10
2023-05-21T10:21:00.922Z,6.95
2023-05-21T10:23:29.177Z,7.55
2023-05-21T10:25:59.667Z,4.75
2023-05-21T10:28:28.313Z,9.23
2023-05-21T10:30:56.883Z,5.25
2023-05-21T10:33:25.781Z,44.70
2023-05-21T10:35:54.888Z,7.10
2023-05-21T10:38:21.810Z,7.97
2023-05-21T10:40:50.006Z,7.55
2023-05-21T10:43:19.908Z,6.80
2023-05-21T10:46:09.250Z,11.57
2023-05-21T10:48:58.142Z,6.20
2023-05-21T10:52:01.592Z,5.65
2023-05-21T10:54:50.894Z,5.13
2023-05-21T10:57:38.103Z,5.20
2023-05-21T11:00:08.342Z,11.80
2023-05-21T11:02:35.666Z,5.90
2023-05-21T11:05:04.521Z,10.30
2023-05-21T11:07:56.392Z,5.68
2023-05-21T11:10:44.661Z,8.63
2023-05-21T11:13:14.407Z,5.45
2023-05-21T11:16:10.850Z,9.10
2023-05-21T11:18:38.122Z,7.60
2023-05-21T11:21:12.568Z,7.88
2023-05-21T11:23:51.965Z,8.50
2023-05-21T11:26:21.777Z,8.25
2023-05-21T11:29:44.744Z,11.68
2023-05-21T11:34:47.308Z,5.70
2023-05-21T11:37:29.118Z,7.72
2023-05-21T11:39:57.691Z,8.85
2023-05-21T11:42:36.724Z,10.30
2023-05-21T11:45:04.870Z,6.65
2023-05-21T11:47:37.136Z,8.13
2023-05-21T11:50:14.655Z,7.25
2023-05-21T11:52:42.962Z,12.00
2023-05-21T11:55:12.954Z,8.57
2023-05-21T11:57:43.169Z,9.73
2023-05-21T12:00:16.070Z,8.50
2023-05-21T12:02:51.542Z,5.88
2023-05-21T12:05:18.789Z,8.20
2023-05-21T12:07:52.556Z,9.43
2023-05-21T12:10:23.523Z,13.32
2023-05-21T12:12:55.438Z,8.18
2023-05-21T12:15:24.801Z,7.13
2023-05-21T12:17:53.282Z,5.68
2023-05-21T12:20:21.138Z,11.75
2023-05-21T12:22:49.953Z,6.25
2023-05-21T12:25:23.764Z,8.30
2023-05-21T12:27:57.894Z,11.07
2023-05-21T12:30:27.990Z,12.50
2023-05-21T12:35:25.424Z,6.43
2023-05-21T12:37:52.927Z,7.10
2023-05-21T12:40:20.237Z,7.03
2023-05-21T12:42:47.373Z,7.43
2023-05-21T12:45:16.297Z,9.23
2023-05-21T12:48:19.810Z,8.15
2023-05-21T12:50:46.811Z,8.00
2023-05-21T12:53:36.848Z,6.00
2023-05-21T12:56:15.172Z,9.55
2023-05-21T12:58:43.332Z,7.72
2023-05-21T13:01:12.248Z,9.02
2023-05-21T13:03:42.444Z,5.85
2023-05-21T13:06:09.620Z,10.63
2023-05-21T13:08:36.713Z,12.18
2023-05-21T13:11:04.977Z,14.77
2023-05-21T13:13:31.986Z,15.30
2023-05-21T13:16:01.780Z,12.60
2023-05-21T13:18:28.820Z,10.80
2023-05-21T13:20:56.875Z,9.15
2023-05-21T13:23:23.847Z,9.13
2023-05-21T13:25:50.752Z,15.27
2023-05-21T13:28:17.946Z,8.30
2023-05-21T13:30:44.838Z,10.98
2023-05-21T13:33:24.943Z,15.27
2023-05-21T13:35:52.008Z,13.95
2023-05-21T13:38:19.313Z,10.02
2023-05-21T13:40:46.709Z,11.93
2023-05-21T13:43:19.296Z,7.28
2023-05-21T13:45:49.585Z,9.05
2023-05-21T13:48:17.069Z,9.65
2023-05-21T13:51:08.758Z,7.95
2023-05-21T13:53:35.956Z,12.75
2023-05-21T13:56:02.946Z,13.68
2023-05-21T13:58:34.532Z,8.52
2023-05-21T14:01:03.027Z,6.85
2023-05-21T14:03:32.498Z,13.40
2023-05-21T14:06:04.953Z,8.77
2023-05-21T14:08:34.298Z,9.43
2023-05-21T14:11:03.996Z,21.63
2023-05-21T14:13:32.673Z,9.32
2023-05-21T14:15:59.838Z,8.18
2023-05-21T14:20:56.713Z,10.57
2023-05-21T14:23:23.764Z,9.07
2023-05-21T14:28:46.155Z,13.18
2023-05-21T14:31:13.284Z,7.65
2023-05-21T14:33:40.197Z,10.40
2023-05-21T14:36:07.273Z,10.32
2023-05-21T14:38:34.326Z,7.22
2023-05-21T14:41:01.182Z,13.52
2023-05-21T14:43:28.115Z,6.28
2023-05-21T14:45:55.034Z,11.57
2023-05-21T14:48:24.545Z,9.45
2023-05-21T14:50:51.617Z,14.98
2023-05-21T14:53:19.317Z,12.43
2023-05-21T14:55:47.505Z,16.27
2023-05-21T14:58:17.044Z,18.42
2023-05-21T15:00:44.427Z,13.23
2023-05-21T15:03:13.765Z,12.65
2023-05-21T15:05:40.661Z,7.20
2023-05-21T15:08:09.747Z,11.50
2023-05-21T15:10:36.738Z,12.18
2023-05-21T15:13:03.710Z,10.60
2023-05-21T15:15:37.697Z,10.13
2023-05-21T15:18:04.986Z,23.38
2023-05-21T15:20:32.137Z,25.40
2023-05-21T15:23:12.707Z,13.95
2023-05-21T15:25:43.526Z,9.82
2023-05-21T15:28:14.587Z,11.77
2023-05-21T15:33:08.204Z,14.45
2023-05-21T15:35:36.698Z,9.25
2023-05-21T15:38:04.077Z,10.40
2023-05-21T15:40:32.621Z,10.73
2023-05-21T15:42:59.678Z,10.40
2023-05-21T15:45:26.913Z,11.73
2023-05-21T15:47:54.305Z,9.60
2023-05-21T15:50:21.349Z,9.13
2023-05-21T15:52:53.556Z,11.88
2023-05-21T15:55:21.207Z,13.23
2023-05-21T15:57:48.116Z,11.23
2023-05-21T16:00:15.339Z,8.40
2023-05-21T16:02:43.175Z,8.48
2023-05-21T16:05:10.259Z,12.10
2023-05-21T16:07:38.281Z,9.10
2023-05-21T16:10:07.287Z,10.45
2023-05-21T16:12:34.130Z,11.00
2023-05-21T16:15:01.299Z,9.88
2023-05-21T16:17:29.766Z,19.73
2023-05-21T16:19:56.687Z,14.02
2023-05-21T16:22:24.050Z,10.75
2023-05-21T16:24:50.976Z,7.75
2023-05-21T16:27:18.018Z,9.02
2023-05-21T16:29:44.972Z,8.82
2023-05-21T16:32:14.240Z,11.00
2023-05-21T16:34:41.403Z,11.40
2023-05-21T16:37:09.827Z,11.23
2023-05-21T16:39:37.489Z,13.35
2023-05-21T16:42:04.754Z,12.55
2023-05-21T16:44:32.306Z,7.57
2023-05-21T16:47:00.069Z,10.70
2023-05-21T16:49:27.758Z,9.82
2023-05-21T16:51:54.948Z,9.27
2023-05-21T16:54:22.200Z,12.18
2023-05-21T16:56:49.447Z,12.85
2023-05-21T16:59:16.528Z,15.02
2023-05-21T17:01:43.546Z,9.70
2023-05-21T17:04:11.163Z,15.27
2023-05-21T17:06:38.150Z,10.32
2023-05-21T17:09:05.267Z,12.05
2023-05-21T17:11:32.477Z,12.30
2023-05-21T17:13:59.508Z,10.20
2023-05-21T17:16:26.799Z,12.40
2023-05-21T17:18:53.797Z,16.05
2023-05-21T17:21:20.901Z,13.88
2023-05-21T17:23:47.921Z,13.43
2023-05-21T17:26:14.822Z,14.25
2023-05-21T17:28:41.736Z,18.52
2023-05-21T17:31:10.330Z,14.40
2023-05-21T17:33:38.669Z,17.40
2023-05-21T17:36:06.269Z,15.15
2023-05-21T17:38:34.221Z,18.08
2023-05-21T17:41:02.362Z,15.05
2023-05-21T17:43:32.480Z,12.95
2023-05-21T17:45:59.433Z,15.45
2023-05-21T17:48:26.622Z,21.60
2023-05-21T17:50:54.571Z,14.63
2023-05-21T17:53:23.072Z,25.00
2023-05-21T17:55:50.359Z,12.95
2023-05-21T17:58:18.170Z,16.38
2023-05-21T18:00:46.582Z,16.73
2023-05-21T18:03:13.584Z,18.60
2023-05-21T18:05:43.008Z,45.95
2023-05-21T18:08:12.315Z,33.08
2023-05-21T18:10:39.738Z,45.22
2023-05-21T18:13:06.997Z,19.85
2023-05-21T18:15:37.107Z,15.57
2023-05-21T18:18:08.793Z,15.90
2023-05-21T18:20:36.975Z,22.73
2023-05-21T18:23:04.242Z,17.42
2023-05-21T18:25:31.602Z,18.25
2023-05-21T18:28:00.614Z,33.53
2023-05-21T18:30:27.641Z,16.35
2023-05-21T18:32:54.861Z,14.18
2023-05-21T18:35:31.363Z,17.40
2023-05-21T18:37:58.439Z,15.82
2023-05-21T18:40:30.834Z,16.67
2023-05-21T18:42:59.838Z,16.35
2023-05-21T18:45:28.811Z,14.65
2023-05-21T18:47:56.300Z,17.73
2023-05-21T18:50:27.175Z,19.58
2023-05-21T18:52:57.660Z,30.13
2023-05-21T18:55:24.889Z,40.60
2023-05-21T18:57:52.565Z,46.60
2023-05-21T19:00:30.290Z,23.45
2023-05-21T19:02:57.373Z,52.88
2023-05-21T19:05:24.345Z,39.03
2023-05-21T19:07:52.885Z,21.88
2023-05-21T19:10:19.995Z,21.55
2023-05-21T19:12:47.087Z,19.58
2023-05-21T19:15:14.333Z,20.15
2023-05-21T19:17:41.311Z,22.15
2023-05-21T19:20:09.159Z,24.45
2023-05-21T19:22:37.342Z,21.17
2023-05-21T19:25:04.667Z,20.13
2023-05-21T19:27:31.744Z,21.77
2023-05-21T19:29:58.688Z,23.98
2023-05-21T19:32:26.102Z,21.92
2023-05-21T19:34:53.084Z,24.77
2023-05-21T19:37:20.060Z,25.00
2023-05-21T19:39:50.100Z,19.05
2023-05-21T19:42:17.991Z,20.10
2023-05-21T19:44:45.052Z,23.20
2023-05-21T19:47:11.990Z,19.50
2023-05-21T19:49:38.868Z,20.98
2023-05-21T19:52:06.280Z,22.88
2023-05-21T19:54:33.257Z,37.55
2023-05-21T19:57:00.264Z,27.70
2023-05-21T19:59:27.303Z,26.02
2023-05-21T20:01:54.993Z,20.90
2023-05-21T20:04:21.883Z,16.20
2023-05-21T20:06:48.940Z,21.52
2023-05-21T20:09:16.973Z,23.92
2023-05-21T20:11:44.108Z,25.05
2023-05-21T20:14:11.370Z,24.13
2023-05-21T20:16:38.278Z,21.90
2023-05-21T20:19:05.696Z,20.33
2023-05-21T20:21:33.100Z,18.83
2023-05-21T20:24:00.085Z,26.20
2023-05-21T20:26:27.172Z,19.80
2023-05-21T20:28:54.178Z,27.23
2023-05-21T20:31:23.147Z,22.92
2023-05-21T20:33:50.758Z,20.77
2023-05-21T20:36:17.934Z,22.25
2023-05-21T20:38:48.490Z,20.65
2023-05-21T20:41:15.534Z,20.88
2023-05-21T20:43:45.545Z,25.10
2023-05-21T20:46:12.801Z,22.00
2023-05-21T20:48:42.239Z,18.73
2023-05-21T20:51:09.480Z,25.58
2023-05-21T20:53:37.106Z,20.75
2023-05-21T20:56:08.251Z,26.95
2023-05-21T21:01:02.529Z,19.38
2023-05-21T21:03:30.023Z,26.02
2023-05-21T21:05:58.265Z,20.30
2023-05-21T21:08:28.064Z,21.13
2023-05-21T21:10:55.055Z,22.80
2023-05-21T21:13:21.928Z,23.67
2023-05-21T21:15:49.292Z,25.52
2023-05-21T21:18:16.809Z,26.23
2023-05-21T21:20:48.063Z,23.23
2023-05-21T21:23:15.264Z,21.73
2023-05-21T21:25:42.351Z,21.35
2023-05-21T21:28:10.727Z,19.98
2023-05-21T21:30:41.133Z,29.23
2023-05-21T21:33:08.756Z,32.38
2023-05-21T21:35:36.133Z,24.65
2023-05-21T21:38:05.117Z,22.17
2023-05-21T21:40:32.118Z,27.55
2023-05-21T21:42:59.422Z,27.90
2023-05-21T21:45:26.909Z,25.73
2023-05-21T21:47:54.019Z,27.17
2023-05-21T21:50:21.245Z,22.05
2023-05-21T21:52:48.966Z,25.42
2023-05-21T21:55:16.383Z,26.33
2023-05-21T21:57:46.093Z,22.55
2023-05-21T22:00:26.927Z,22.73
2023-05-21T22:02:54.425Z,25.73
2023-05-21T22:05:21.591Z,27.40
2023-05-21T22:07:48.959Z,25.17
2023-05-21T22:10:17.158Z,26.58
2023-05-21T22:12:44.970Z,25.20
2023-05-21T22:15:19.102Z,26.67
2023-05-21T22:17:48.739Z,30.13
2023-05-21T22:20:17.534Z,32.10
2023-05-21T22:22:46.362Z,27.50
2023-05-21T22:25:13.336Z,27.00
2023-05-21T22:27:40.644Z,28.45
2023-05-21T22:30:08.499Z,38.55
2023-05-21T22:32:35.932Z,26.45
2023-05-21T22:35:10.839Z,23.58
2023-05-21T22:37:38.513Z,27.92
2023-05-21T22:40:09.426Z,27.58
2023-05-21T22:42:36.919Z,26.20
2023-05-21T22:45:04.331Z,28.67
2023-05-21T22:47:32.374Z,27.70
2023-05-21T22:50:01.517Z,32.25
2023-05-21T22:52:29.265Z,27.88
2023-05-21T22:54:57.997Z,26.33
2023-05-21T22:57:25.536Z,24.10
2023-05-21T22:59:52.500Z,31.60
2023-05-21T23:02:19.768Z,29.25
2023-05-21T23:04:49.851Z,30.50
2023-05-21T23:07:16.792Z,28.63
2023-05-21T23:09:43.735Z,36.47
2023-05-21T23:12:11.159Z,33.13
2023-05-21T23:14:38.438Z,38.60
2023-05-21T23:17:06.043Z,32.42
2023-05-21T23:19:37.714Z,33.70
2023-05-21T23:22:05.003Z,32.15
2023-05-21T23:24:35.113Z,31.98
2023-05-21T23:27:03.174Z,32.55
2023-05-21T23:29:32.437Z,37.33
2023-05-21T23:32:01.229Z,35.42
2023-05-21T23:34:28.212Z,32.67
2023-05-21T23:36:55.667Z,33.50
2023-05-21T23:39:23.347Z,28.85
2023-05-21T23:41:50.898Z,31.73
2023-05-21T23:44:24.842Z,36.22
2023-05-21T23:46:51.972Z,28.33
2023-05-21T23:49:19.610Z,36.72
2023-05-21T23:52:01.617Z,29.13
2023-05-21T23:54:31.544Z,28.75
2023-05-21T23:56:58.376Z,30.73
2023-05-21T23:59:25.387Z,29.85
